Time;durP1;ratioP1;P1;durP2;ratioP2;P2;SDS_P1;SDS_P2;PMS_P1;PMS_P2;Temp;Humidity;BMP_temperature;BMP_pressure;BME280_temperature;BME280_humidity;BME280_pressure;Samples;Min_cycle;Max_cycle;Signal;HPM_P1;HPM_P2
2022/09/05 00:00:25;;;;;;;2.75;1.80;;;19.10;99.90;;;;;;5079835;28;20124;-66
2022/09/05 00:03:06;;;;;;;4.45;1.75;;;19.10;99.90;;;;;;5078580;28;20099;-64
2022/09/05 00:05:51;;;;;;;2.15;1.95;;;19.10;99.90;;;;;;5079559;28;20032;-64
2022/09/05 00:08:43;;;;;;;3.45;1.90;;;19.00;99.90;;;;;;5079524;28;20289;-65
2022/09/05 00:11:42;;;;;;;3.65;2.20;;;19.00;99.90;;;;;;5071193;28;20300;-65
2022/09/05 00:14:52;;;;;;;4.10;2.10;;;19.00;99.90;;;;;;5079770;28;20327;-65
2022/09/05 00:17:43;;;;;;;4.40;1.90;;;18.90;99.90;;;;;;5079862;28;20127;-65
2022/09/05 00:20:30;;;;;;;3.40;2.08;;;18.90;99.90;;;;;;5079289;28;20111;-65
2022/09/05 00:23:09;;;;;;;3.95;1.75;;;18.90;99.90;;;;;;5079243;28;20036;-65
2022/09/05 00:26:02;;;;;;;4.30;2.10;;;18.90;99.90;;;;;;5079358;28;20031;-66
2022/09/05 00:29:02;;;;;;;3.17;2.10;;;18.80;99.90;;;;;;5079227;28;20025;-66
2022/09/05 00:31:36;;;;;;;3.05;2.15;;;18.90;99.90;;;;;;5079285;28;20055;-66
2022/09/05 00:34:15;;;;;;;3.30;2.05;;;18.80;99.90;;;;;;5079115;28;20024;-65
2022/09/05 00:36:53;;;;;;;3.25;2.10;;;18.70;99.90;;;;;;5079658;28;20051;-65
2022/09/05 00:39:34;;;;;;;5.07;2.15;;;18.70;99.90;;;;;;5079136;28;20032;-65
2022/09/05 00:42:07;;;;;;;4.28;2.10;;;18.70;99.90;;;;;;5078210;28;20063;-65
2022/09/05 00:44:46;;;;;;;5.25;2.40;;;18.60;99.90;;;;;;5078246;28;20020;-65
2022/09/05 00:47:34;;;;;;;7.05;2.35;;;18.70;99.90;;;;;;5078874;28;20044;-65
2022/09/05 00:50:07;;;;;;;5.07;2.25;;;18.70;99.90;;;;;;5078796;28;20308;-65
2022/09/05 00:52:56;;;;;;;2.83;2.00;;;18.60;99.90;;;;;;5078148;28;20060;-64
2022/09/05 00:55:22;;;;;;;4.25;2.42;;;18.60;99.90;;;;;;5078875;28;20111;-65
2022/09/05 00:58:23;;;;;;;5.50;2.50;;;18.60;99.90;;;;;;5079006;28;20366;-65
2022/09/05 01:00:58;;;;;;;4.95;2.28;;;18.70;99.90;;;;;;5078691;28;20397;-67
2022/09/05 01:03:49;;;;;;;9.00;2.08;;;18.70;99.90;;;;;;5078531;28;20112;-65
2022/09/05 01:06:33;;;;;;;3.00;2.33;;;18.60;99.90;;;;;;5058978;28;20036;-65
2022/09/05 01:09:18;;;;;;;3.38;2.25;;;18.60;99.90;;;;;;5078755;28;20423;-66
2022/09/05 01:11:51;;;;;;;3.38;2.13;;;18.50;99.90;;;;;;5077666;28;20392;-65
2022/09/05 01:14:25;;;;;;;3.90;2.03;;;18.40;99.90;;;;;;5078679;28;20060;-65
2022/09/05 01:17:04;;;;;;;2.90;2.28;;;18.40;99.90;;;;;;5078350;28;20032;-64
2022/09/05 01:19:39;;;;;;;3.90;2.45;;;18.30;99.90;;;;;;5094328;28;20029;-64
2022/09/05 01:22:17;;;;;;;3.50;1.95;;;18.30;99.90;;;;;;5078227;28;20028;-65
2022/09/05 01:25:00;;;;;;;3.05;2.30;;;18.30;99.90;;;;;;5078398;28;20120;-65
2022/09/05 01:27:46;;;;;;;4.15;2.42;;;18.30;99.90;;;;;;5078283;28;20083;-66
2022/09/05 01:30:32;;;;;;;2.50;2.30;;;18.20;99.90;;;;;;5077989;28;20024;-66
2022/09/05 01:33:33;;;;;;;3.10;2.83;;;18.10;99.90;;;;;;5094916;22;20045;-65
2022/09/05 01:36:21;;;;;;;4.50;2.20;;;18.10;99.90;;;;;;5058081;28;20347;-66
2022/09/05 01:39:19;;;;;;;5.43;2.40;;;18.10;99.90;;;;;;5057968;28;20435;-65
2022/09/05 01:42:07;;;;;;;2.97;2.55;;;18.00;99.90;;;;;;5057950;28;20297;-65
2022/09/05 01:44:42;;;;;;;3.53;2.50;;;18.00;99.90;;;;;;5057809;28;20304;-66
2022/09/05 01:47:41;;;;;;;5.03;2.88;;;18.00;99.90;;;;;;5058260;28;20029;-65
2022/09/05 01:50:33;;;;;;;4.75;2.53;;;17.90;99.90;;;;;;5057687;28;20381;-66
2022/09/05 01:53:24;;;;;;;3.58;2.58;;;17.90;99.90;;;;;;5057661;28;20029;-65
2022/09/05 01:55:55;;;;;;;3.47;2.40;;;17.90;99.90;;;;;;5057607;28;20079;-65
2022/09/05 01:59:02;;;;;;;4.45;2.40;;;17.90;99.90;;;;;;5057780;28;20043;-64
2022/09/05 02:01:45;;;;;;;2.90;2.25;;;17.90;99.90;;;;;;5057818;28;20301;-66
2022/09/05 02:05:01;;;;;;;3.40;2.20;;;17.80;99.90;;;;;;5057290;28;20060;-65
2022/09/05 02:07:59;;;;;;;3.72;2.67;;;17.80;99.90;;;;;;5063652;28;20036;-66
2022/09/05 02:11:11;;;;;;;3.80;2.70;;;17.80;99.90;;;;;;5039123;28;20040;-65
2022/09/05 02:13:55;;;;;;;3.78;2.25;;;17.80;99.90;;;;;;5036087;28;20045;-65
2022/09/05 02:16:37;;;;;;;4.05;2.40;;;17.70;99.90;;;;;;5036008;28;20037;-65
2022/09/05 02:19:13;;;;;;;6.00;2.72;;;17.70;99.90;;;;;;5062913;28;20112;-64
2022/09/05 02:21:50;;;;;;;3.45;2.92;;;17.70;99.90;;;;;;5057174;28;20128;-64
2022/09/05 02:24:27;;;;;;;2.92;2.40;;;17.70;99.90;;;;;;5057048;28;20094;-65
2022/09/05 02:27:23;;;;;;;6.22;2.70;;;17.80;99.90;;;;;;5057079;28;20057;-65
2022/09/05 02:30:05;;;;;;;6.35;2.53;;;17.80;99.90;;;;;;5056989;28;20404;-65
2022/09/05 02:32:55;;;;;;;3.97;2.40;;;17.80;99.90;;;;;;5075598;28;20057;-65
2022/09/05 02:35:50;;;;;;;5.13;2.40;;;17.60;99.90;;;;;;5076897;28;20075;-65
2022/09/05 02:38:28;;;;;;;2.22;1.98;;;17.60;99.90;;;;;;5076999;28;20079;-64
2022/09/05 02:40:54;;;;;;;5.20;2.58;;;17.60;99.90;;;;;;5076185;28;20044;-65
2022/09/05 02:43:25;;;;;;;2.85;2.55;;;17.60;99.90;;;;;;5077142;28;20283;-65
2022/09/05 02:46:44;;;;;;;4.63;2.20;;;17.60;99.90;;;;;;5076836;28;20024;-65
2022/09/05 02:49:27;;;;;;;5.85;2.55;;;17.50;99.90;;;;;;5033380;28;20169;-66
2022/09/05 02:52:07;;;;;;;4.60;2.60;;;17.50;99.90;;;;;;5076863;28;20273;-66
2022/09/05 02:54:38;;;;;;;4.07;2.60;;;17.50;99.90;;;;;;5059348;28;20039;-67
2022/09/05 02:57:32;;;;;;;4.47;2.78;;;17.50;99.90;;;;;;5076897;28;20036;-66
2022/09/05 03:00:00;;;;;;;5.22;2.63;;;17.40;99.90;;;;;;5076855;28;20046;-66
2022/09/05 03:02:47;;;;;;;3.58;2.25;;;17.40;99.90;;;;;;5077033;28;20021;-66
2022/09/05 03:05:20;;;;;;;4.50;2.65;;;17.40;99.90;;;;;;5076644;28;20067;-66
2022/09/05 03:08:14;;;;;;;5.20;2.63;;;17.40;99.90;;;;;;5076759;28;20119;-66
2022/09/05 03:11:01;;;;;;;2.85;2.33;;;17.40;99.90;;;;;;5075948;28;20036;-66
2022/09/05 03:13:48;;;;;;;3.85;2.53;;;17.40;99.90;;;;;;5076650;28;20036;-65
2022/09/05 03:16:45;;;;;;;4.35;2.80;;;17.40;99.90;;;;;;5080269;28;20020;-67
2022/09/05 03:19:49;;;;;;;3.70;2.67;;;17.50;99.90;;;;;;5080507;28;20067;-65
2022/09/05 03:22:24;;;;;;;3.78;2.60;;;17.40;99.90;;;;;;5080526;28;20071;-65
2022/09/05 03:25:32;;;;;;;3.33;2.42;;;17.40;99.90;;;;;;5080358;28;20060;-65
2022/09/05 03:28:35;;;;;;;5.88;2.80;;;17.40;99.90;;;;;;5080709;28;20150;-65
2022/09/05 03:31:28;;;;;;;3.38;2.33;;;17.30;99.90;;;;;;5080283;28;20043;-65
2022/09/05 03:34:31;;;;;;;3.63;2.60;;;17.30;99.90;;;;;;5080392;28;20334;-65
2022/09/05 03:37:06;;;;;;;;;;;17.30;99.90;;;;;;5081275;28;20075;-65
2022/09/05 03:39:41;;;;;;;4.30;2.40;;;17.30;99.90;;;;;;5080433;28;19909;-65
2022/09/05 03:42:10;;;;;;;2.90;2.60;;;17.40;99.90;;;;;;5080097;28;20032;-64
2022/09/05 03:45:16;;;;;;;3.45;2.67;;;17.40;99.90;;;;;;5062590;28;20311;-64
2022/09/05 03:47:51;;;;;;;4.68;2.58;;;17.30;99.90;;;;;;5077603;28;20116;-64
2022/09/05 03:50:36;;;;;;;4.40;2.80;;;17.30;99.90;;;;;;5079947;28;20361;-65
2022/09/05 03:53:08;;;;;;;3.38;2.50;;;17.30;99.90;;;;;;5080529;28;20036;-65
2022/09/05 03:55:52;;;;;;;2.67;2.47;;;17.30;99.90;;;;;;5079817;28;20036;-65
2022/09/05 03:58:48;;;;;;;3.15;2.80;;;17.30;99.90;;;;;;5079850;28;20341;-66
2022/09/05 04:01:21;;;;;;;3.90;2.83;;;17.30;99.90;;;;;;5079793;28;20304;-65
2022/09/05 04:03:53;;;;;;;4.45;3.00;;;17.30;99.90;;;;;;5062842;28;20036;-65
2022/09/05 04:06:38;;;;;;;3.13;2.70;;;17.30;99.90;;;;;;5079669;28;20035;-65
2022/09/05 04:09:23;;;;;;;4.50;2.90;;;17.30;99.90;;;;;;5079551;28;20021;-65
2022/09/05 04:11:54;;;;;;;4.50;2.90;;;17.20;99.90;;;;;;5062274;28;20021;-65
2022/09/05 04:14:43;;;;;;;5.53;3.38;;;17.20;99.90;;;;;;5079923;28;20044;-64
2022/09/05 04:17:40;;;;;;;4.53;3.38;;;17.20;99.90;;;;;;5080167;28;20385;-64
2022/09/05 04:20:09;;;;;;;3.63;2.92;;;17.30;99.90;;;;;;5062074;28;20035;-64
2022/09/05 04:23:07;;;;;;;3.67;3.17;;;17.30;99.90;;;;;;5079368;28;20024;-63
2022/09/05 04:26:00;;;;;;;3.42;2.78;;;17.20;99.90;;;;;;5079008;28;20032;-64
2022/09/05 04:28:32;;;;;;;3.13;2.88;;;17.20;99.90;;;;;;5079668;28;20088;-65
2022/09/05 04:31:08;;;;;;;2.92;2.60;;;17.10;99.90;;;;;;5061859;28;20039;-65
2022/09/05 04:33:36;;;;;;;3.20;2.90;;;17.20;99.90;;;;;;5079162;28;20052;-64
2022/09/05 04:36:08;;;;;;;3.85;2.90;;;17.10;99.90;;;;;;5079108;28;20064;-64
2022/09/05 04:38:40;;;;;;;4.90;2.90;;;17.10;99.90;;;;;;5079137;28;20040;-65
2022/09/05 04:41:19;;;;;;;4.50;3.10;;;17.10;99.90;;;;;;5061979;28;20052;-65
2022/09/05 04:43:57;;;;;;;6.20;3.42;;;17.10;99.90;;;;;;5078880;28;20043;-64
2022/09/05 04:46:34;;;;;;;6.38;3.53;;;17.10;99.90;;;;;;5078982;28;20044;-65
2022/09/05 04:49:20;;;;;;;6.30;3.55;;;17.10;99.90;;;;;;5079340;28;20036;-64
2022/09/05 04:52:04;;;;;;;6.07;4.53;;;17.10;99.90;;;;;;5078884;28;20116;-65
2022/09/05 04:54:49;;;;;;;6.18;4.15;;;17.10;99.90;;;;;;5078783;28;20028;-65
2022/09/05 04:57:47;;;;;;;6.25;4.10;;;17.20;99.90;;;;;;5078712;28;20024;-65
2022/09/05 05:00:31;;;;;;;4.72;3.25;;;17.20;99.90;;;;;;5078528;28;20032;-66
2022/09/05 05:03:03;;;;;;;4.85;3.60;;;17.10;99.90;;;;;;5061060;28;20047;-64
2022/09/05 05:05:47;;;;;;;4.82;3.50;;;17.20;99.90;;;;;;5078577;28;20028;-65
2022/09/05 05:08:21;;;;;;;5.18;3.72;;;17.20;99.90;;;;;;5078803;28;20392;-66
2022/09/05 05:11:15;;;;;;;5.70;3.20;;;17.30;99.90;;;;;;5078470;28;20350;-65
2022/09/05 05:13:51;;;;;;;5.40;3.13;;;17.30;99.90;;;;;;5067737;28;20428;-65
2022/09/05 05:16:19;;;;;;;4.30;3.00;;;17.40;99.90;;;;;;5078529;28;20104;-66
2022/09/05 05:18:55;;;;;;;4.57;2.90;;;17.50;99.90;;;;;;5078433;28;20303;-64
2022/09/05 05:21:26;;;;;;;4.00;2.90;;;17.60;99.90;;;;;;5060920;28;20079;-64
2022/09/05 05:24:00;;;;;;;3.65;2.40;;;17.70;99.90;;;;;;5078138;28;20074;-65
2022/09/05 05:26:54;;;;;;;3.15;2.85;;;17.80;99.90;;;;;;5078298;28;20035;-64
2022/09/05 05:29:47;;;;;;;5.22;2.97;;;17.90;99.90;;;;;;5049935;28;20040;-64
2022/09/05 05:32:24;;;;;;;4.60;3.00;;;18.00;99.90;;;;;;5077626;28;20024;-66
2022/09/05 05:34:55;;;;;;;3.22;2.92;;;18.00;99.90;;;;;;5077965;28;20055;-65
2022/09/05 05:37:41;;;;;;;3.83;3.15;;;18.10;99.90;;;;;;5077871;28;20036;-66
2022/09/05 05:40:28;;;;;;;5.28;2.67;;;18.20;99.90;;;;;;5067489;28;20032;-65
2022/09/05 05:43:16;;;;;;;4.15;2.90;;;18.40;99.90;;;;;;5077936;28;20089;-65
2022/09/05 05:45:42;;;;;;;4.20;2.95;;;18.60;99.90;;;;;;5077966;28;20347;-63
2022/09/05 05:48:27;;;;;;;5.00;3.08;;;18.90;99.90;;;;;;5077968;28;20060;-65
2022/09/05 05:51:12;;;;;;;5.22;2.80;;;19.00;99.90;;;;;;5077744;28;20404;-64
2022/09/05 05:53:43;;;;;;;4.53;2.47;;;19.20;99.90;;;;;;5077640;28;20036;-65
2022/09/05 05:56:12;;;;;;;4.93;2.80;;;19.30;99.90;;;;;;5077785;28;20024;-65
2022/09/05 05:59:06;;;;;;;2.53;2.20;;;19.40;99.90;;;;;;5077616;28;20032;-67
2022/09/05 06:01:32;;;;;;;2.75;2.20;;;19.60;99.90;;;;;;5077463;28;20025;-66
2022/09/05 06:04:28;;;;;;;2.42;1.90;;;19.80;99.90;;;;;;5059967;28;20029;-64
2022/09/05 06:07:24;;;;;;;3.10;2.22;;;19.90;99.90;;;;;;5059976;28;20024;-65
2022/09/05 06:10:06;;;;;;;3.75;2.17;;;19.90;99.90;;;;;;5077574;28;20411;-66
2022/09/05 06:13:00;;;;;;;6.18;2.10;;;20.10;99.90;;;;;;5077284;28;20035;-67
2022/09/05 06:16:00;;;;;;;2.78;1.80;;;20.30;99.90;;;;;;5077208;28;20070;-64
2022/09/05 06:18:43;;;;;;;3.42;2.13;;;20.40;99.90;;;;;;5077412;28;20048;-65
2022/09/05 06:21:40;;;;;;;2.95;2.00;;;20.20;99.90;;;;;;5059939;28;20025;-67
2022/09/05 06:24:37;;;;;;;2.70;1.90;;;20.10;99.90;;;;;;5077218;28;20029;-68
2022/09/05 06:27:21;;;;;;;6.60;2.35;;;20.00;99.90;;;;;;5077706;28;20032;-64
2022/09/05 06:30:14;;;;;;;2.25;2.05;;;20.40;99.90;;;;;;5059793;28;20025;-65
2022/09/05 06:33:07;;;;;;;2.63;1.80;;;20.50;99.90;;;;;;5059527;28;20055;-65
2022/09/05 06:36:05;;;;;;;2.08;1.80;;;20.50;99.90;;;;;;5077269;28;20074;-64
2022/09/05 06:38:57;;;;;;;2.80;2.00;;;20.50;99.90;;;;;;5077074;28;20296;-66
2022/09/05 06:41:59;;;;;;;3.58;1.95;;;20.50;99.90;;;;;;5077199;28;20113;-66
2022/09/05 06:45:13;;;;;;;3.37;1.90;;;20.60;99.90;;;;;;5077386;28;20032;-66
2022/09/05 06:47:43;;;;;;;5.13;1.85;;;20.80;99.90;;;;;;5077043;28;20028;-65
2022/09/05 06:50:12;;;;;;;3.13;1.67;;;21.00;99.90;;;;;;5076971;28;20273;-66
2022/09/05 06:53:09;;;;;;;4.32;2.00;;;21.10;99.90;;;;;;5059417;28;20047;-66
2022/09/05 06:56:07;;;;;;;3.50;1.80;;;21.00;99.90;;;;;;5076885;28;20411;-65
2022/09/05 06:59:11;;;;;;;6.80;2.10;;;21.20;99.90;;;;;;5076781;28;20056;-65
2022/09/05 07:01:50;;;;;;;3.97;2.00;;;21.20;99.90;;;;;;5077146;28;20047;-65
2022/09/05 07:04:35;;;;;;;2.65;1.90;;;21.30;99.90;;;;;;5076703;28;20032;-65
2022/09/05 07:07:09;;;;;;;7.97;1.90;;;21.20;99.90;;;;;;5076629;28;20036;-66
2022/09/05 07:10:04;;;;;;;2.65;1.70;;;21.30;99.90;;;;;;5076963;28;20043;-66
2022/09/05 07:12:58;;;;;;;2.58;1.70;;;21.40;99.90;;;;;;5059345;28;20107;-66
2022/09/05 07:15:42;;;;;;;5.18;1.70;;;21.40;99.90;;;;;;5076636;28;20021;-66
2022/09/05 07:18:21;;;;;;;4.32;1.80;;;21.40;99.90;;;;;;5059312;28;20020;-66
2022/09/05 07:20:56;;;;;;;4.30;1.77;;;21.40;99.90;;;;;;5059354;28;20038;-65
2022/09/05 07:23:42;;;;;;;2.72;1.60;;;21.30;99.90;;;;;;5077203;28;20400;-66
2022/09/05 07:26:09;;;;;;;4.07;1.77;;;21.10;99.90;;;;;;5077177;28;20051;-66
2022/09/05 07:28:49;;;;;;;2.42;1.90;;;21.00;99.90;;;;;;5059308;28;20028;-65
2022/09/05 07:31:21;;;;;;;3.95;1.50;;;21.20;99.90;;;;;;5059436;28;20031;-65
2022/09/05 07:33:47;;;;;;;3.47;1.77;;;21.20;99.90;;;;;;5076264;28;20320;-66
2022/09/05 07:36:30;;;;;;;6.13;1.77;;;21.30;99.90;;;;;;5076921;28;20120;-66
2022/09/05 07:39:00;;;;;;;4.10;1.50;;;21.40;99.90;;;;;;5076480;28;20278;-66
2022/09/05 07:41:29;;;;;;;6.05;1.90;;;21.60;99.90;;;;;;5076975;28;20051;-64
2022/09/05 07:44:16;;;;;;;3.75;1.70;;;21.60;99.90;;;;;;5076306;28;20024;-65
2022/09/05 07:46:46;;;;;;;4.32;1.50;;;21.70;99.90;;;;;;5076418;28;20035;-66
2022/09/05 07:49:19;;;;;;;3.35;1.40;;;21.80;99.90;;;;;;5076242;28;20054;-66
2022/09/05 07:52:18;;;;;;;2.88;1.70;;;21.80;99.90;;;;;;5076447;28;20093;-65
2022/09/05 07:54:47;;;;;;;5.35;1.70;;;21.70;99.90;;;;;;5055185;28;20307;-66
2022/09/05 07:57:26;;;;;;;4.13;1.75;;;21.90;99.90;;;;;;5058814;28;20032;-67
2022/09/05 08:00:00;;;;;;;2.83;1.60;;;22.10;99.90;;;;;;5076302;28;20032;-65
2022/09/05 08:02:26;;;;;;;3.63;1.55;;;22.20;99.90;;;;;;5079759;28;20039;-66
2022/09/05 08:05:02;;;;;;;1.90;1.50;;;22.20;99.90;;;;;;5079771;28;20029;-64
2022/09/05 08:07:32;;;;;;;2.83;1.50;;;22.30;99.90;;;;;;5079805;28;20028;-66
2022/09/05 08:10:04;;;;;;;3.22;1.70;;;22.50;99.90;;;;;;5079759;28;20093;-66
2022/09/05 08:12:36;;;;;;;3.33;1.85;;;22.80;99.90;;;;;;5062543;28;20293;-66
2022/09/05 08:15:10;;;;;;;6.13;1.80;;;22.90;99.90;;;;;;5080050;28;20292;-64
2022/09/05 08:17:58;;;;;;;3.80;1.50;;;22.90;99.90;;;;;;5079605;28;20094;-66
2022/09/05 08:20:36;;;;;;;1.60;1.50;;;23.00;99.90;;;;;;5037620;28;20041;-66
2022/09/05 08:23:20;;;;;;;3.65;1.65;;;23.10;99.90;;;;;;5079733;28;20391;-68
2022/09/05 08:26:03;;;;;;;3.90;1.50;;;23.20;99.90;;;;;;5079612;28;20028;-67
2022/09/05 08:28:58;;;;;;;1.80;1.38;;;23.20;99.90;;;;;;5079878;28;20032;-67
2022/09/05 08:31:51;;;;;;;2.20;1.40;;;23.30;99.90;;;;;;5072479;28;20120;-68
2022/09/05 08:34:31;;;;;;;4.75;1.60;;;23.20;99.90;;;;;;5079343;28;20071;-66
2022/09/05 08:36:59;;;;;;;3.90;1.52;;;23.20;99.90;;;;;;5080180;28;20032;-68
2022/09/05 08:39:30;;;;;;;3.08;1.40;;;23.30;99.90;;;;;;5080408;28;20081;-67
2022/09/05 08:41:56;;;;;;;2.40;1.40;;;23.40;99.90;;;;;;5080807;28;20115;-68
2022/09/05 08:44:37;;;;;;;2.78;1.20;;;23.50;99.90;;;;;;5079767;28;20185;-68
2022/09/05 08:47:36;;;;;;;4.95;1.48;;;23.60;99.90;;;;;;5062627;28;20044;-67
2022/09/05 08:50:37;;;;;;;3.45;1.38;;;23.70;99.90;;;;;;5064168;28;20036;-66
2022/09/05 08:53:15;;;;;;;1.35;1.13;;;23.80;99.90;;;;;;5079015;28;20028;-68
2022/09/05 08:55:55;;;;;;;2.45;1.25;;;24.00;99.90;;;;;;5079216;28;20038;-66
2022/09/05 08:58:32;;;;;;;3.40;1.30;;;24.20;99.90;;;;;;5079257;28;20028;-67
2022/09/05 09:01:21;;;;;;;3.50;1.27;;;24.40;99.90;;;;;;5079310;28;20054;-67
2022/09/05 09:04:22;;;;;;;2.60;1.20;;;24.60;99.90;;;;;;5078680;28;20028;-66
2022/09/05 09:06:48;;;;;;;7.05;1.67;;;24.90;99.90;;;;;;5078733;28;20084;-67
2022/09/05 09:09:17;;;;;;;2.88;1.58;;;25.10;99.90;;;;;;5078773;28;20396;-67
2022/09/05 09:12:02;;;;;;;3.15;1.38;;;25.20;99.90;;;;;;5078498;28;20056;-67
2022/09/05 09:14:42;;;;;;;4.88;1.70;;;25.30;99.90;;;;;;5079538;28;20047;-70
2022/09/05 09:17:25;;;;;;;4.72;1.70;;;25.20;99.90;;;;;;5080889;28;20097;-69
2022/09/05 09:19:54;;;;;;;3.22;1.58;;;25.40;99.90;;;;;;5080781;28;20043;-67
2022/09/05 09:22:36;;;;;;;1.83;1.58;;;25.60;99.90;;;;;;5080853;28;20377;-71
2022/09/05 09:25:20;;;;;;;3.90;1.45;;;25.70;99.90;;;;;;5080997;28;20041;-68
2022/09/05 09:28:34;;;;;;;3.10;1.50;;;25.80;99.90;;;;;;5079934;28;20029;-68
2022/09/05 09:31:32;;;;;;;2.35;1.45;;;26.10;99.90;;;;;;5078217;28;20089;-67
2022/09/05 09:34:25;;;;;;;2.47;1.38;;;26.40;99.90;;;;;;5050792;28;20100;-70
2022/09/05 09:36:56;;;;;;;2.60;1.20;;;26.50;99.90;;;;;;5088178;22;20284;-68
2022/09/05 09:39:28;;;;;;;2.87;1.67;;;26.70;99.90;;;;;;5078984;28;20055;-65
2022/09/05 09:42:18;;;;;;;3.33;1.30;;;26.80;99.90;;;;;;5079921;28;20032;-71
2022/09/05 09:45:20;;;;;;;4.68;1.33;;;26.70;99.90;;;;;;5079440;28;20054;-65
2022/09/05 09:47:52;;;;;;;1.65;0.98;;;26.80;99.90;;;;;;5072550;28;20388;-66
2022/09/05 09:50:26;;;;;;;3.13;1.20;;;26.80;99.90;;;;;;5078883;28;20024;-71
2022/09/05 09:53:30;;;;;;;2.28;1.08;;;26.80;99.90;;;;;;5079880;28;20040;-70
2022/09/05 09:56:31;;;;;;;2.20;1.30;;;26.70;99.90;;;;;;5078171;28;20040;-70
2022/09/05 09:59:31;;;;;;;3.70;0.98;;;26.80;99.90;;;;;;5075998;28;20040;-67
2022/09/05 10:02:14;;;;;;;1.98;1.10;;;27.30;99.90;;;;;;5079495;28;20048;-69
2022/09/05 10:04:59;;;;;;;3.30;1.15;;;27.30;99.90;;;;;;5080040;28;20032;-67
2022/09/05 10:07:39;;;;;;;2.42;1.20;;;27.50;99.90;;;;;;5079935;28;20070;-69
2022/09/05 10:10:17;;;;;;;2.65;1.10;;;27.60;99.90;;;;;;5079641;28;20075;-68
2022/09/05 10:13:16;;;;;;;3.30;1.30;;;27.70;99.90;;;;;;5078412;28;20043;-70
2022/09/05 10:16:19;;;;;;;2.53;1.20;;;27.50;99.90;;;;;;5079323;28;20044;-69
2022/09/05 10:18:45;;;;;;;;;;;27.70;99.90;;;;;;5080257;28;20036;-68
2022/09/05 10:21:30;;;;;;;1.70;1.10;;;28.00;99.90;;;;;;5080355;28;19908;-68
2022/09/05 10:24:12;;;;;;;5.25;1.10;;;27.90;99.90;;;;;;5095835;28;20062;-70
2022/09/05 10:27:00;;;;;;;1.73;0.93;;;27.80;99.90;;;;;;5079089;28;20036;-69
2022/09/05 10:29:47;;;;;;;4.55;1.17;;;28.10;99.90;;;;;;5079102;28;20024;-68
2022/09/05 10:32:13;;;;;;;2.63;1.10;;;28.40;99.90;;;;;;5079682;28;20021;-70
2022/09/05 10:34:53;;;;;;;2.40;1.00;;;28.70;99.90;;;;;;5077940;28;20174;-65
2022/09/05 10:37:19;;;;;;;2.22;1.00;;;29.10;99.90;;;;;;5095398;28;20045;-74
2022/09/05 10:39:50;;;;;;;1.30;1.20;;;29.20;99.90;;;;;;5077762;28;20040;-72
2022/09/05 10:42:28;;;;;;;1.00;0.77;;;29.70;99.90;;;;;;5078425;28;20273;-67
2022/09/05 10:44:55;;;;;;;3.13;1.05;;;30.50;99.90;;;;;;5078455;28;20033;-69
2022/09/05 10:47:46;;;;;;;1.45;1.00;;;30.10;99.90;;;;;;5062149;28;20044;-69
2022/09/05 10:50:24;;;;;;;1.70;1.00;;;30.10;99.90;;;;;;5079017;28;20043;-67
2022/09/05 10:53:01;;;;;;;2.58;0.82;;;30.60;99.90;;;;;;5079133;28;20028;-72
2022/09/05 10:56:03;;;;;;;2.65;0.90;;;32.00;99.90;;;;;;5080114;28;20124;-69
2022/09/05 10:58:32;;;;;;;1.52;1.00;;;30.80;99.90;;;;;;5076788;28;20040;-68
2022/09/05 11:01:24;;;;;;;3.70;1.08;;;31.70;99.30;;;;;;5078337;28;20032;-69
2022/09/05 11:03:57;;;;;;;1.85;0.80;;;33.30;95.70;;;;;;5078113;28;20040;-68
2022/09/05 11:06:43;;;;;;;3.15;0.75;;;34.70;93.20;;;;;;5078416;28;20033;-70
2022/09/05 11:09:38;;;;;;;1.65;0.90;;;35.80;86.30;;;;;;5074700;28;20047;-65
2022/09/05 11:12:22;;;;;;;1.42;0.80;;;34.60;85.00;;;;;;5078958;28;20040;-67
2022/09/05 11:14:55;;;;;;;2.97;0.80;;;34.90;83.80;;;;;;5078784;28;20054;-69
2022/09/05 11:17:34;;;;;;;2.38;1.02;;;33.90;82.30;;;;;;5077863;28;20086;-70
2022/09/05 11:20:38;;;;;;;1.58;1.00;;;32.60;87.40;;;;;;5078452;28;20024;-69
2022/09/05 11:23:13;;;;;;;5.13;1.05;;;32.80;88.00;;;;;;5056953;28;20098;-70
2022/09/05 11:25:41;;;;;;;3.95;1.10;;;32.80;88.10;;;;;;5075703;28;20037;-70
2022/09/05 11:28:32;;;;;;;2.53;1.10;;;33.50;86.90;;;;;;5094606;28;20029;-73
2022/09/05 11:31:02;;;;;;;2.15;1.00;;;34.50;82.60;;;;;;5078408;28;20036;-68
2022/09/05 11:33:50;;;;;;;1.50;1.08;;;33.80;83.70;;;;;;5079754;28;20052;-72
2022/09/05 11:36:29;;;;;;;2.22;1.02;;;32.80;85.90;;;;;;5081632;28;20037;-70
2022/09/05 11:38:59;;;;;;;2.10;1.08;;;32.50;88.10;;;;;;5082687;28;20044;-69
2022/09/05 11:41:56;;;;;;;2.35;0.88;;;33.60;85.60;;;;;;5082785;28;20036;-69
2022/09/05 11:44:51;;;;;;;1.85;1.00;;;34.80;82.20;;;;;;5081801;28;20391;-68
2022/09/05 11:47:39;;;;;;;2.38;1.00;;;36.70;76.40;;;;;;5081663;28;20081;-70
2022/09/05 11:50:05;;;;;;;4.63;1.10;;;36.50;72.90;;;;;;5081951;28;20017;-68
2022/09/05 11:52:40;;;;;;;3.03;0.98;;;36.40;72.20;;;;;;5082366;28;20039;-68
2022/09/05 11:55:28;;;;;;;3.80;1.05;;;37.20;72.00;;;;;;5081135;28;20304;-68
2022/09/05 11:58:18;;;;;;;2.60;1.00;;;36.00;70.10;;;;;;5082731;28;20025;-68
2022/09/05 12:01:12;;;;;;;2.85;1.00;;;34.20;73.50;;;;;;5097962;28;20064;-67
2022/09/05 12:04:01;;;;;;;1.35;1.10;;;34.30;74.40;;;;;;5081140;28;20108;-66
2022/09/05 12:06:58;;;;;;;4.68;1.30;;;34.80;75.00;;;;;;5076510;28;20044;-66
2022/09/05 12:09:42;;;;;;;4.47;1.00;;;36.80;71.00;;;;;;5079885;28;20025;-67
2022/09/05 12:12:21;;;;;;;2.00;1.10;;;38.10;68.30;;;;;;5080203;28;20033;-67
2022/09/05 12:14:59;;;;;;;4.15;1.10;;;38.60;65.10;;;;;;5079680;28;20036;-67
2022/09/05 12:17:30;;;;;;;1.40;1.00;;;39.90;62.00;;;;;;5079571;28;20054;-67
2022/09/05 12:19:58;;;;;;;3.83;1.00;;;38.90;61.20;;;;;;5095708;28;20094;-66
2022/09/05 12:22:27;;;;;;;1.67;0.80;;;37.30;62.80;;;;;;5079710;28;20025;-66
2022/09/05 12:25:09;;;;;;;5.00;1.08;;;36.10;65.50;;;;;;5079735;28;20036;-68
2022/09/05 12:27:36;;;;;;;2.97;1.10;;;35.10;66.90;;;;;;5081037;28;20103;-68
2022/09/05 12:30:08;;;;;;;1.50;1.10;;;34.30;69.70;;;;;;5081488;28;20418;-67
2022/09/05 12:32:54;;;;;;;5.60;1.17;;;34.60;70.30;;;;;;5081691;28;20024;-68
2022/09/05 12:35:45;;;;;;;2.00;1.10;;;36.40;68.50;;;;;;5081097;28;20376;-65
2022/09/05 12:38:41;;;;;;;5.53;1.00;;;37.50;63.10;;;;;;5079668;28;20056;-68
2022/09/05 12:41:10;;;;;;;3.17;0.77;;;37.10;61.20;;;;;;5077932;28;20052;-68
2022/09/05 12:43:44;;;;;;;3.20;0.93;;;36.70;59.90;;;;;;5079493;28;20028;-67
2022/09/05 12:46:26;;;;;;;2.47;0.70;;;37.50;60.60;;;;;;5080397;28;20285;-66
2022/09/05 12:49:06;;;;;;;1.92;0.82;;;38.00;58.50;;;;;;5079560;28;20353;-68
2022/09/05 12:51:36;;;;;;;2.10;1.00;;;39.20;56.00;;;;;;5079900;28;20028;-69
2022/09/05 12:54:14;;;;;;;2.60;1.02;;;39.80;55.20;;;;;;5079463;28;20289;-71
2022/09/05 12:56:59;;;;;;;4.07;1.10;;;39.00;54.60;;;;;;5078629;28;20028;-67
2022/09/05 12:59:27;;;;;;;1.30;1.10;;;37.60;57.30;;;;;;5078911;28;20052;-66
2022/09/05 13:02:02;;;;;;;3.92;1.30;;;38.10;57.20;;;;;;5078998;28;20032;-69
2022/09/05 13:04:39;;;;;;;3.55;1.27;;;36.90;58.00;;;;;;5078885;28;20029;-66
2022/09/05 13:07:30;;;;;;;1.55;0.90;;;36.80;59.10;;;;;;5078673;28;20024;-66
2022/09/05 13:10:11;;;;;;;1.25;0.88;;;38.30;56.40;;;;;;5078586;28;20024;-64
2022/09/05 13:12:47;;;;;;;3.20;1.20;;;39.10;56.00;;;;;;5078650;28;20035;-64
2022/09/05 13:15:25;;;;;;;3.15;0.90;;;38.40;56.60;;;;;;5095172;28;20116;-67
2022/09/05 13:18:09;;;;;;;2.17;1.20;;;37.10;57.00;;;;;;5077734;28;20025;-64
2022/09/05 13:20:50;;;;;;;1.90;1.10;;;37.50;57.50;;;;;;5078698;28;20108;-65
2022/09/05 13:23:23;;;;;;;3.88;1.30;;;37.10;58.50;;;;;;5078414;28;20039;-65
2022/09/05 13:26:04;;;;;;;2.38;1.10;;;38.00;57.00;;;;;;5078298;28;20020;-65
2022/09/05 13:28:47;;;;;;;4.93;1.08;;;38.30;56.10;;;;;;5078707;28;20034;-66
2022/09/05 13:31:14;;;;;;;2.53;1.25;;;38.20;56.20;;;;;;5078619;28;20085;-66
2022/09/05 13:33:51;;;;;;;3.15;1.30;;;36.90;56.80;;;;;;5077605;28;20032;-66
2022/09/05 13:36:23;;;;;;;1.98;0.98;;;36.80;57.50;;;;;;5078044;28;20036;-66
2022/09/05 13:39:09;;;;;;;2.88;0.90;;;37.30;57.20;;;;;;5078020;28;20304;-65
2022/09/05 13:41:42;;;;;;;6.15;1.05;;;36.40;57.90;;;;;;5077986;28;20035;-66
2022/09/05 13:44:13;;;;;;;4.10;1.20;;;35.60;59.10;;;;;;5077807;28;20032;-65
2022/09/05 13:47:00;;;;;;;5.38;1.10;;;35.50;59.90;;;;;;5079817;28;20048;-67
2022/09/05 13:49:39;;;;;;;5.25;1.08;;;36.20;60.10;;;;;;5095408;28;20099;-71
2022/09/05 13:52:24;;;;;;;3.05;1.08;;;36.30;58.40;;;;;;5095486;28;20034;-66
2022/09/05 13:55:14;;;;;;;1.58;0.82;;;36.90;57.50;;;;;;5080002;28;20256;-64
2022/09/05 13:58:00;;;;;;;3.63;0.93;;;38.60;55.20;;;;;;5079638;28;20032;-69
2022/09/05 14:00:59;;;;;;;2.45;0.90;;;39.40;53.60;;;;;;5079002;28;20403;-67
2022/09/05 14:03:42;;;;;;;1.38;0.90;;;40.00;52.30;;;;;;5078665;28;20036;-68
2022/09/05 14:06:35;;;;;;;1.95;0.90;;;40.20;52.20;;;;;;5078767;28;20024;-73
2022/09/05 14:09:21;;;;;;;3.03;0.90;;;39.70;51.10;;;;;;5078798;28;20032;-67